sensor_id;sensor_type;location;lat;lon;timestamp;pressure;altitude;pressure_sealevel;temperature;humidity
60646;BME280;46462;32.608;-117.032;2023-03-08T00:00:28;99757.73;;;21.24;37.86
60646;BME280;46462;32.608;-117.032;2023-03-08T00:02:59;99759.62;;;21.08;38.23
60646;BME280;46462;32.608;-117.032;2023-03-08T00:05:29;99752.88;;;20.75;38.84
60646;BME280;46462;32.608;-117.032;2023-03-08T00:08:00;99754.13;;;20.79;38.72
60646;BME280;46462;32.608;-117.032;2023-03-08T00:10:31;99754.53;;;20.42;39.49
60646;BME280;46462;32.608;-117.032;2023-03-08T00:13:02;99761.52;;;20.11;40.09
60646;BME280;46462;32.608;-117.032;2023-03-08T00:15:32;99761.96;;;20.20;40.20
60646;BME280;46462;32.608;-117.032;2023-03-08T00:18:03;99758.84;;;21.66;37.65
60646;BME280;46462;32.608;-117.032;2023-03-08T00:20:34;99768.25;;;21.69;37.21
60646;BME280;46462;32.608;-117.032;2023-03-08T00:23:05;99771.24;;;21.36;37.79
60646;BME280;46462;32.608;-117.032;2023-03-08T00:25:35;99772.51;;;21.28;38.02
60646;BME280;46462;32.608;-117.032;2023-03-08T00:28:06;99767.79;;;21.08;38.27
60646;BME280;46462;32.608;-117.032;2023-03-08T00:30:37;99764.27;;;20.76;38.96
60646;BME280;46462;32.608;-117.032;2023-03-08T00:33:08;99742.69;;;21.92;36.90
60646;BME280;46462;32.608;-117.032;2023-03-08T00:35:39;99740.81;;;23.05;34.79
60646;BME280;46462;32.608;-117.032;2023-03-08T00:38:09;99737.51;;;23.71;33.53
60646;BME280;46462;32.608;-117.032;2023-03-08T00:40:40;99735.76;;;24.00;33.04
60646;BME280;46462;32.608;-117.032;2023-03-08T00:43:11;99736.34;;;24.05;32.96
60646;BME280;46462;32.608;-117.032;2023-03-08T00:45:42;99737.56;;;24.09;32.91
60646;BME280;46462;32.608;-117.032;2023-03-08T00:48:12;99742.23;;;24.05;33.05
60646;BME280;46462;32.608;-117.032;2023-03-08T00:50:44;99742.25;;;24.04;33.25
60646;BME280;46462;32.608;-117.032;2023-03-08T00:53:14;99743.13;;;24.06;33.27
60646;BME280;46462;32.608;-117.032;2023-03-08T00:55:49;99743.12;;;24.15;33.19
60646;BME280;46462;32.608;-117.032;2023-03-08T00:58:16;99744.10;;;24.12;33.37
60646;BME280;46462;32.608;-117.032;2023-03-08T01:00:46;99744.35;;;24.09;33.48
60646;BME280;46462;32.608;-117.032;2023-03-08T01:03:18;99750.12;;;24.11;33.45
60646;BME280;46462;32.608;-117.032;2023-03-08T01:05:49;99753.42;;;24.17;33.47
60646;BME280;46462;32.608;-117.032;2023-03-08T01:08:19;99754.63;;;24.22;33.36
60646;BME280;46462;32.608;-117.032;2023-03-08T01:10:50;99755.08;;;24.15;33.58
60646;BME280;46462;32.608;-117.032;2023-03-08T01:13:20;99760.09;;;24.22;33.41
60646;BME280;46462;32.608;-117.032;2023-03-08T01:15:50;99762.98;;;24.19;33.50
60646;BME280;46462;32.608;-117.032;2023-03-08T01:18:21;99762.78;;;24.29;33.45
60646;BME280;46462;32.608;-117.032;2023-03-08T01:20:57;99764.38;;;24.37;33.37
60646;BME280;46462;32.608;-117.032;2023-03-08T01:23:23;99765.30;;;24.47;33.24
60646;BME280;46462;32.608;-117.032;2023-03-08T01:25:58;99764.73;;;24.51;33.23
60646;BME280;46462;32.608;-117.032;2023-03-08T01:28:24;99765.36;;;24.60;33.07
60646;BME280;46462;32.608;-117.032;2023-03-08T01:31:00;99766.52;;;24.63;33.12
60646;BME280;46462;32.608;-117.032;2023-03-08T01:33:26;99767.46;;;24.64;33.17
60646;BME280;46462;32.608;-117.032;2023-03-08T01:35:57;99769.81;;;24.64;33.15
60646;BME280;46462;32.608;-117.032;2023-03-08T01:38:27;99774.86;;;24.65;33.10
60646;BME280;46462;32.608;-117.032;2023-03-08T01:40:59;99775.59;;;24.61;33.30
60646;BME280;46462;32.608;-117.032;2023-03-08T01:43:31;99776.34;;;24.63;33.15
60646;BME280;46462;32.608;-117.032;2023-03-08T01:46:10;99779.30;;;24.58;33.29
60646;BME280;46462;32.608;-117.032;2023-03-08T01:48:32;99780.27;;;24.57;33.37
60646;BME280;46462;32.608;-117.032;2023-03-08T01:51:03;99780.21;;;24.53;33.46
60646;BME280;46462;32.608;-117.032;2023-03-08T01:53:33;99783.05;;;24.53;33.47
60646;BME280;46462;32.608;-117.032;2023-03-08T01:56:03;99784.21;;;24.50;33.45
60646;BME280;46462;32.608;-117.032;2023-03-08T01:58:34;99783.65;;;24.43;33.67
60646;BME280;46462;32.608;-117.032;2023-03-08T02:01:04;99786.11;;;24.39;33.65
60646;BME280;46462;32.608;-117.032;2023-03-08T02:03:35;99788.76;;;24.38;33.76
60646;BME280;46462;32.608;-117.032;2023-03-08T02:06:06;99791.87;;;24.37;33.75
60646;BME280;46462;32.608;-117.032;2023-03-08T02:08:36;99791.27;;;24.36;33.74
60646;BME280;46462;32.608;-117.032;2023-03-08T02:11:07;99794.28;;;24.37;33.68
60646;BME280;46462;32.608;-117.032;2023-03-08T02:13:38;99798.23;;;24.34;33.66
60646;BME280;46462;32.608;-117.032;2023-03-08T02:16:12;99800.57;;;24.32;33.75
60646;BME280;46462;32.608;-117.032;2023-03-08T02:21:10;99792.55;;;24.32;33.77
60646;BME280;46462;32.608;-117.032;2023-03-08T02:23:41;99788.44;;;24.30;33.84
60646;BME280;46462;32.608;-117.032;2023-03-08T02:26:12;99787.43;;;24.31;33.78
60646;BME280;46462;32.608;-117.032;2023-03-08T02:28:43;99790.08;;;24.30;33.80
60646;BME280;46462;32.608;-117.032;2023-03-08T02:31:14;99790.39;;;24.29;33.78
60646;BME280;46462;32.608;-117.032;2023-03-08T02:33:44;99795.09;;;24.27;33.84
60646;BME280;46462;32.608;-117.032;2023-03-08T02:36:15;99794.64;;;24.28;33.77
60646;BME280;46462;32.608;-117.032;2023-03-08T02:38:46;99793.72;;;24.22;33.90
60646;BME280;46462;32.608;-117.032;2023-03-08T02:41:16;99790.73;;;24.24;33.88
60646;BME280;46462;32.608;-117.032;2023-03-08T02:43:47;99792.61;;;24.22;33.89
60646;BME280;46462;32.608;-117.032;2023-03-08T02:46:18;99793.85;;;24.22;33.83
60646;BME280;46462;32.608;-117.032;2023-03-08T02:48:49;99794.26;;;24.17;33.97
60646;BME280;46462;32.608;-117.032;2023-03-08T02:51:20;99792.83;;;24.17;33.91
60646;BME280;46462;32.608;-117.032;2023-03-08T02:53:50;99793.70;;;24.14;33.99
60646;BME280;46462;32.608;-117.032;2023-03-08T02:56:21;99797.14;;;24.15;33.91
60646;BME280;46462;32.608;-117.032;2023-03-08T02:58:52;99801.62;;;24.12;33.94
60646;BME280;46462;32.608;-117.032;2023-03-08T03:01:23;99799.96;;;24.12;33.88
60646;BME280;46462;32.608;-117.032;2023-03-08T03:03:54;99803.45;;;24.10;34.01
60646;BME280;46462;32.608;-117.032;2023-03-08T03:06:24;99812.28;;;24.09;33.98
60646;BME280;46462;32.608;-117.032;2023-03-08T03:08:55;99813.52;;;24.07;34.01
60646;BME280;46462;32.608;-117.032;2023-03-08T03:11:26;99812.00;;;24.03;34.06
60646;BME280;46462;32.608;-117.032;2023-03-08T03:13:58;99819.43;;;24.00;34.12
60646;BME280;46462;32.608;-117.032;2023-03-08T03:16:28;99823.28;;;23.97;34.21
60646;BME280;46462;32.608;-117.032;2023-03-08T03:18:58;99823.22;;;23.94;34.29
60646;BME280;46462;32.608;-117.032;2023-03-08T03:21:29;99828.31;;;23.93;34.21
60646;BME280;46462;32.608;-117.032;2023-03-08T03:24:00;99831.25;;;23.89;34.37
60646;BME280;46462;32.608;-117.032;2023-03-08T03:26:30;99833.18;;;23.87;34.37
60646;BME280;46462;32.608;-117.032;2023-03-08T03:29:01;99833.84;;;23.85;34.50
60646;BME280;46462;32.608;-117.032;2023-03-08T03:31:32;99835.71;;;23.81;34.60
60646;BME280;46462;32.608;-117.032;2023-03-08T03:34:03;99837.08;;;23.78;34.68
60646;BME280;46462;32.608;-117.032;2023-03-08T03:36:34;99835.30;;;23.77;34.65
60646;BME280;46462;32.608;-117.032;2023-03-08T03:39:04;99836.80;;;23.74;34.68
60646;BME280;46462;32.608;-117.032;2023-03-08T03:41:35;99836.62;;;23.72;34.77
60646;BME280;46462;32.608;-117.032;2023-03-08T03:44:06;99842.39;;;23.66;34.87
60646;BME280;46462;32.608;-117.032;2023-03-08T03:46:37;99846.77;;;23.65;34.91
60646;BME280;46462;32.608;-117.032;2023-03-08T03:49:07;99843.82;;;23.54;35.07
60646;BME280;46462;32.608;-117.032;2023-03-08T03:51:38;99845.12;;;23.51;35.24
60646;BME280;46462;32.608;-117.032;2023-03-08T03:54:09;99846.18;;;23.49;35.34
60646;BME280;46462;32.608;-117.032;2023-03-08T03:56:40;99847.86;;;23.51;35.21
60646;BME280;46462;32.608;-117.032;2023-03-08T03:59:11;99854.94;;;23.43;35.32
60646;BME280;46462;32.608;-117.032;2023-03-08T04:01:42;99860.03;;;23.43;35.41
60646;BME280;46462;32.608;-117.032;2023-03-08T04:04:13;99864.97;;;23.40;35.51
60646;BME280;46462;32.608;-117.032;2023-03-08T04:06:43;99867.63;;;23.32;35.67
60646;BME280;46462;32.608;-117.032;2023-03-08T04:09:15;99870.76;;;23.30;35.70
60646;BME280;46462;32.608;-117.032;2023-03-08T04:11:44;99873.26;;;23.36;35.51
60646;BME280;46462;32.608;-117.032;2023-03-08T04:14:15;99872.83;;;23.35;35.39
60646;BME280;46462;32.608;-117.032;2023-03-08T04:16:46;99871.69;;;23.31;35.63
60646;BME280;46462;32.608;-117.032;2023-03-08T04:19:16;99872.44;;;23.20;35.86
60646;BME280;46462;32.608;-117.032;2023-03-08T04:21:47;99875.38;;;23.14;36.03
60646;BME280;46462;32.608;-117.032;2023-03-08T04:24:18;99875.76;;;23.17;35.90
60646;BME280;46462;32.608;-117.032;2023-03-08T04:26:49;99876.87;;;23.15;36.01
60646;BME280;46462;32.608;-117.032;2023-03-08T04:29:19;99878.65;;;23.08;36.11
60646;BME280;46462;32.608;-117.032;2023-03-08T04:31:50;99880.10;;;23.07;35.95
60646;BME280;46462;32.608;-117.032;2023-03-08T04:34:21;99884.10;;;22.96;36.20
60646;BME280;46462;32.608;-117.032;2023-03-08T04:36:52;99883.20;;;23.01;36.08
60646;BME280;46462;32.608;-117.032;2023-03-08T04:39:22;99877.66;;;22.92;36.22
60646;BME280;46462;32.608;-117.032;2023-03-08T04:41:53;99876.47;;;22.91;36.30
60646;BME280;46462;32.608;-117.032;2023-03-08T04:44:23;99881.17;;;22.89;36.20
60646;BME280;46462;32.608;-117.032;2023-03-08T04:46:54;99876.97;;;22.91;36.16
60646;BME280;46462;32.608;-117.032;2023-03-08T04:49:25;99876.78;;;22.86;36.24
60646;BME280;46462;32.608;-117.032;2023-03-08T04:51:56;99880.78;;;22.81;36.27
60646;BME280;46462;32.608;-117.032;2023-03-08T04:54:27;99884.12;;;22.74;36.34
60646;BME280;46462;32.608;-117.032;2023-03-08T04:56:57;99887.12;;;22.65;36.48
60646;BME280;46462;32.608;-117.032;2023-03-08T04:59:28;99888.68;;;22.61;36.49
60646;BME280;46462;32.608;-117.032;2023-03-08T05:01:59;99890.35;;;22.73;36.25
60646;BME280;46462;32.608;-117.032;2023-03-08T05:04:30;99895.46;;;22.60;36.50
60646;BME280;46462;32.608;-117.032;2023-03-08T05:07:01;99896.74;;;22.68;36.31
60646;BME280;46462;32.608;-117.032;2023-03-08T05:09:31;99901.19;;;22.55;36.47
60646;BME280;46462;32.608;-117.032;2023-03-08T05:12:02;99904.81;;;22.55;36.47
60646;BME280;46462;32.608;-117.032;2023-03-08T05:14:33;99906.24;;;22.52;36.48
60646;BME280;46462;32.608;-117.032;2023-03-08T05:17:04;99904.42;;;22.44;36.67
60646;BME280;46462;32.608;-117.032;2023-03-08T05:19:34;99905.39;;;22.50;36.53
60646;BME280;46462;32.608;-117.032;2023-03-08T05:22:05;99905.25;;;22.46;36.54
60646;BME280;46462;32.608;-117.032;2023-03-08T05:24:38;99907.43;;;22.29;36.89
60646;BME280;46462;32.608;-117.032;2023-03-08T05:27:07;99911.30;;;22.42;36.59
60646;BME280;46462;32.608;-117.032;2023-03-08T05:29:38;99913.88;;;22.34;36.60
60646;BME280;46462;32.608;-117.032;2023-03-08T05:32:10;99917.74;;;22.33;36.54
60646;BME280;46462;32.608;-117.032;2023-03-08T05:34:39;99918.91;;;22.34;36.55
60646;BME280;46462;32.608;-117.032;2023-03-08T05:37:10;99914.76;;;22.26;36.69
60646;BME280;46462;32.608;-117.032;2023-03-08T05:39:41;99919.85;;;22.23;36.79
60646;BME280;46462;32.608;-117.032;2023-03-08T05:42:12;99925.33;;;22.27;36.79
60646;BME280;46462;32.608;-117.032;2023-03-08T05:44:43;99925.44;;;22.15;36.90
60646;BME280;46462;32.608;-117.032;2023-03-08T05:47:13;99929.50;;;22.15;36.95
60646;BME280;46462;32.608;-117.032;2023-03-08T05:49:44;99930.17;;;22.22;36.75
60646;BME280;46462;32.608;-117.032;2023-03-08T05:52:15;99932.19;;;22.12;36.87
60646;BME280;46462;32.608;-117.032;2023-03-08T05:54:46;99934.54;;;22.18;36.61
60646;BME280;46462;32.608;-117.032;2023-03-08T05:57:17;99937.23;;;22.09;36.89
60646;BME280;46462;32.608;-117.032;2023-03-08T05:59:47;99938.32;;;22.06;36.86
60646;BME280;46462;32.608;-117.032;2023-03-08T06:02:18;99938.21;;;22.09;36.94
60646;BME280;46462;32.608;-117.032;2023-03-08T06:04:49;99939.76;;;22.07;36.96
60646;BME280;46462;32.608;-117.032;2023-03-08T06:07:20;99938.88;;;22.03;36.92
60646;BME280;46462;32.608;-117.032;2023-03-08T06:09:51;99940.14;;;22.12;36.79
60646;BME280;46462;32.608;-117.032;2023-03-08T06:12:21;99942.93;;;22.20;36.52
60646;BME280;46462;32.608;-117.032;2023-03-08T06:14:52;99947.17;;;22.18;36.52
60646;BME280;46462;32.608;-117.032;2023-03-08T06:17:23;99946.98;;;22.12;36.60
60646;BME280;46462;32.608;-117.032;2023-03-08T06:19:54;99945.48;;;22.01;36.84
60646;BME280;46462;32.608;-117.032;2023-03-08T06:22:25;99940.88;;;21.96;36.98
60646;BME280;46462;32.608;-117.032;2023-03-08T06:24:56;99941.96;;;22.09;36.59
60646;BME280;46462;32.608;-117.032;2023-03-08T06:27:26;99943.71;;;22.14;36.61
60646;BME280;46462;32.608;-117.032;2023-03-08T06:29:57;99939.48;;;21.91;36.95
60646;BME280;46462;32.608;-117.032;2023-03-08T06:32:28;99940.09;;;21.82;37.18
60646;BME280;46462;32.608;-117.032;2023-03-08T06:34:59;99941.05;;;21.93;36.80
60646;BME280;46462;32.608;-117.032;2023-03-08T06:37:32;99939.09;;;21.97;36.62
60646;BME280;46462;32.608;-117.032;2023-03-08T06:40:01;99945.34;;;21.93;36.64
60646;BME280;46462;32.608;-117.032;2023-03-08T06:42:31;99947.59;;;21.89;36.73
60646;BME280;46462;32.608;-117.032;2023-03-08T06:45:02;99948.15;;;21.81;36.83
60646;BME280;46462;32.608;-117.032;2023-03-08T06:47:33;99949.22;;;21.83;36.99
60646;BME280;46462;32.608;-117.032;2023-03-08T06:50:08;99946.63;;;21.76;36.94
60646;BME280;46462;32.608;-117.032;2023-03-08T06:52:37;99946.15;;;21.78;36.85
60646;BME280;46462;32.608;-117.032;2023-03-08T06:55:08;99948.15;;;21.75;36.86
60646;BME280;46462;32.608;-117.032;2023-03-08T06:57:38;99946.24;;;21.65;36.88
60646;BME280;46462;32.608;-117.032;2023-03-08T07:00:10;99948.32;;;21.72;36.87
60646;BME280;46462;32.608;-117.032;2023-03-08T07:02:40;99949.84;;;21.70;36.97
60646;BME280;46462;32.608;-117.032;2023-03-08T07:05:11;99951.82;;;21.60;37.22
60646;BME280;46462;32.608;-117.032;2023-03-08T07:07:41;99946.60;;;21.52;37.18
60646;BME280;46462;32.608;-117.032;2023-03-08T07:10:13;99943.93;;;21.53;37.20
60646;BME280;46462;32.608;-117.032;2023-03-08T07:12:44;99944.64;;;21.46;37.35
60646;BME280;46462;32.608;-117.032;2023-03-08T07:15:15;99941.09;;;21.54;37.27
60646;BME280;46462;32.608;-117.032;2023-03-08T07:17:45;99944.65;;;21.34;37.61
60646;BME280;46462;32.608;-117.032;2023-03-08T07:20:17;99940.11;;;21.29;37.53
60646;BME280;46462;32.608;-117.032;2023-03-08T07:22:47;99939.93;;;21.36;37.23
60646;BME280;46462;32.608;-117.032;2023-03-08T07:25:18;99937.62;;;21.35;37.24
60646;BME280;46462;32.608;-117.032;2023-03-08T07:27:48;99935.31;;;21.37;37.09
60646;BME280;46462;32.608;-117.032;2023-03-08T07:30:19;99935.05;;;21.31;37.31
60646;BME280;46462;32.608;-117.032;2023-03-08T07:32:51;99934.40;;;21.25;37.24
60646;BME280;46462;32.608;-117.032;2023-03-08T07:35:21;99939.65;;;21.19;37.66
60646;BME280;46462;32.608;-117.032;2023-03-08T07:37:51;99934.27;;;21.18;37.45
60646;BME280;46462;32.608;-117.032;2023-03-08T07:40:22;99935.17;;;21.19;37.50
60646;BME280;46462;32.608;-117.032;2023-03-08T07:42:52;99933.65;;;21.14;37.62
60646;BME280;46462;32.608;-117.032;2023-03-08T07:45:23;99930.71;;;21.14;37.58
60646;BME280;46462;32.608;-117.032;2023-03-08T07:47:54;99929.89;;;21.13;37.51
60646;BME280;46462;32.608;-117.032;2023-03-08T07:50:25;99928.69;;;21.21;37.27
60646;BME280;46462;32.608;-117.032;2023-03-08T07:52:57;99924.86;;;21.06;37.66
60646;BME280;46462;32.608;-117.032;2023-03-08T07:55:27;99925.82;;;20.91;38.02
60646;BME280;46462;32.608;-117.032;2023-03-08T07:57:58;99923.78;;;21.00;37.46
60646;BME280;46462;32.608;-117.032;2023-03-08T08:00:29;99922.30;;;21.06;37.42
60646;BME280;46462;32.608;-117.032;2023-03-08T08:02:59;99925.73;;;21.20;37.37
60646;BME280;46462;32.608;-117.032;2023-03-08T08:05:30;99928.28;;;21.14;37.51
60646;BME280;46462;32.608;-117.032;2023-03-08T08:08:01;99928.89;;;21.15;37.29
60646;BME280;46462;32.608;-117.032;2023-03-08T08:10:32;99927.51;;;21.01;37.59
60646;BME280;46462;32.608;-117.032;2023-03-08T08:13:03;99921.50;;;20.97;37.34
60646;BME280;46462;32.608;-117.032;2023-03-08T08:15:34;99918.40;;;20.94;37.49
60646;BME280;46462;32.608;-117.032;2023-03-08T08:18:05;99916.64;;;20.81;37.69
60646;BME280;46462;32.608;-117.032;2023-03-08T08:20:35;99910.28;;;20.81;37.93
60646;BME280;46462;32.608;-117.032;2023-03-08T08:23:06;99898.77;;;20.84;37.66
60646;BME280;46462;32.608;-117.032;2023-03-08T08:25:39;99898.93;;;20.94;37.20
60646;BME280;46462;32.608;-117.032;2023-03-08T08:28:08;99898.02;;;20.85;37.47
60646;BME280;46462;32.608;-117.032;2023-03-08T08:30:38;99899.73;;;20.74;37.75
60646;BME280;46462;32.608;-117.032;2023-03-08T08:33:09;99896.15;;;20.75;37.51
60646;BME280;46462;32.608;-117.032;2023-03-08T08:35:40;99894.13;;;20.67;37.62
60646;BME280;46462;32.608;-117.032;2023-03-08T08:38:11;99896.36;;;20.69;37.98
60646;BME280;46462;32.608;-117.032;2023-03-08T08:40:42;99899.07;;;20.72;37.72
60646;BME280;46462;32.608;-117.032;2023-03-08T08:43:13;99895.12;;;20.71;37.49
60646;BME280;46462;32.608;-117.032;2023-03-08T08:45:44;99895.10;;;20.72;37.57
60646;BME280;46462;32.608;-117.032;2023-03-08T08:48:15;99890.63;;;20.78;37.37
60646;BME280;46462;32.608;-117.032;2023-03-08T08:50:45;99893.50;;;20.70;37.84
60646;BME280;46462;32.608;-117.032;2023-03-08T08:53:16;99893.55;;;20.74;37.40
60646;BME280;46462;32.608;-117.032;2023-03-08T08:55:47;99893.63;;;20.50;37.99
60646;BME280;46462;32.608;-117.032;2023-03-08T08:58:18;99893.18;;;20.50;37.86
60646;BME280;46462;32.608;-117.032;2023-03-08T09:00:49;99889.37;;;20.57;37.70
60646;BME280;46462;32.608;-117.032;2023-03-08T09:03:19;99889.21;;;20.57;37.59
60646;BME280;46462;32.608;-117.032;2023-03-08T09:05:50;99884.92;;;20.53;37.51
60646;BME280;46462;32.608;-117.032;2023-03-08T09:08:21;99884.95;;;20.51;37.65
60646;BME280;46462;32.608;-117.032;2023-03-08T09:10:52;99887.07;;;20.50;37.46
60646;BME280;46462;32.608;-117.032;2023-03-08T09:13:23;99884.01;;;20.46;37.77
60646;BME280;46462;32.608;-117.032;2023-03-08T09:15:53;99883.41;;;20.39;37.87
60646;BME280;46462;32.608;-117.032;2023-03-08T09:18:24;99879.56;;;20.48;37.66
60646;BME280;46462;32.608;-117.032;2023-03-08T09:20:55;99877.54;;;20.46;37.76
60646;BME280;46462;32.608;-117.032;2023-03-08T09:23:27;99879.00;;;20.29;37.99
60646;BME280;46462;32.608;-117.032;2023-03-08T09:25:57;99874.65;;;20.26;37.98
60646;BME280;46462;32.608;-117.032;2023-03-08T09:28:28;99872.10;;;20.17;38.44
60646;BME280;46462;32.608;-117.032;2023-03-08T09:30:59;99871.27;;;20.27;38.03
60646;BME280;46462;32.608;-117.032;2023-03-08T09:33:29;99867.68;;;20.13;37.95
60646;BME280;46462;32.608;-117.032;2023-03-08T09:36:01;99861.85;;;20.13;38.25
60646;BME280;46462;32.608;-117.032;2023-03-08T09:38:31;99861.92;;;20.03;38.30
60646;BME280;46462;32.608;-117.032;2023-03-08T09:41:13;99861.90;;;19.99;38.31
60646;BME280;46462;32.608;-117.032;2023-03-08T09:43:41;99860.06;;;20.00;38.51
60646;BME280;46462;32.608;-117.032;2023-03-08T09:46:04;99859.95;;;20.09;38.01
60646;BME280;46462;32.608;-117.032;2023-03-08T09:48:35;99858.78;;;20.04;37.88
60646;BME280;46462;32.608;-117.032;2023-03-08T09:51:09;99856.71;;;20.05;38.12
60646;BME280;46462;32.608;-117.032;2023-03-08T09:53:40;99851.21;;;20.09;38.06
60646;BME280;46462;32.608;-117.032;2023-03-08T09:56:13;99844.98;;;20.05;38.20
60646;BME280;46462;32.608;-117.032;2023-03-08T09:58:41;99842.14;;;20.06;37.94
60646;BME280;46462;32.608;-117.032;2023-03-08T10:01:18;99836.87;;;20.08;38.07
60646;BME280;46462;32.608;-117.032;2023-03-08T10:06:13;99832.12;;;19.97;38.21
60646;BME280;46462;32.608;-117.032;2023-03-08T10:08:44;99832.98;;;20.01;38.02
60646;BME280;46462;32.608;-117.032;2023-03-08T10:11:17;99829.08;;;19.91;37.97
60646;BME280;46462;32.608;-117.032;2023-03-08T10:13:42;99826.69;;;19.89;38.09
60646;BME280;46462;32.608;-117.032;2023-03-08T10:16:16;99824.66;;;19.86;38.03
60646;BME280;46462;32.608;-117.032;2023-03-08T10:18:47;99822.44;;;19.95;37.94
60646;BME280;46462;32.608;-117.032;2023-03-08T10:21:16;99815.42;;;19.95;38.16
60646;BME280;46462;32.608;-117.032;2023-03-08T10:23:46;99816.00;;;19.82;38.11
60646;BME280;46462;32.608;-117.032;2023-03-08T10:26:15;99818.43;;;19.76;38.21
60646;BME280;46462;32.608;-117.032;2023-03-08T10:28:46;99820.32;;;19.84;38.23
60646;BME280;46462;32.608;-117.032;2023-03-08T10:31:20;99822.17;;;19.91;37.80
60646;BME280;46462;32.608;-117.032;2023-03-08T10:33:46;99820.57;;;19.88;38.36
60646;BME280;46462;32.608;-117.032;2023-03-08T10:36:19;99824.72;;;19.78;38.16
60646;BME280;46462;32.608;-117.032;2023-03-08T10:38:57;99823.41;;;19.78;37.96
60646;BME280;46462;32.608;-117.032;2023-03-08T10:41:18;99820.40;;;19.62;38.34
60646;BME280;46462;32.608;-117.032;2023-03-08T10:43:51;99827.58;;;19.69;37.98
60646;BME280;46462;32.608;-117.032;2023-03-08T10:46:20;99832.09;;;19.65;38.20
60646;BME280;46462;32.608;-117.032;2023-03-08T10:48:49;99833.17;;;19.51;38.24
60646;BME280;46462;32.608;-117.032;2023-03-08T10:51:21;99833.28;;;19.61;38.25
60646;BME280;46462;32.608;-117.032;2023-03-08T10:53:53;99831.66;;;19.59;38.35
60646;BME280;46462;32.608;-117.032;2023-03-08T10:56:24;99835.56;;;19.49;38.44
60646;BME280;46462;32.608;-117.032;2023-03-08T10:58:49;99833.06;;;19.58;38.58
60646;BME280;46462;32.608;-117.032;2023-03-08T11:01:25;99835.04;;;19.56;38.49
60646;BME280;46462;32.608;-117.032;2023-03-08T11:03:57;99831.36;;;19.52;38.19
60646;BME280;46462;32.608;-117.032;2023-03-08T11:06:24;99830.09;;;19.47;38.56
60646;BME280;46462;32.608;-117.032;2023-03-08T11:08:53;99834.79;;;19.46;38.55
60646;BME280;46462;32.608;-117.032;2023-03-08T11:11:19;99835.43;;;19.52;38.25
60646;BME280;46462;32.608;-117.032;2023-03-08T11:13:50;99837.23;;;19.45;38.57
60646;BME280;46462;32.608;-117.032;2023-03-08T11:16:28;99835.00;;;19.54;38.09
60646;BME280;46462;32.608;-117.032;2023-03-08T11:18:57;99840.67;;;19.37;38.36
60646;BME280;46462;32.608;-117.032;2023-03-08T11:21:25;99846.53;;;19.45;38.44
60646;BME280;46462;32.608;-117.032;2023-03-08T11:23:55;99846.75;;;19.39;38.16
60646;BME280;46462;32.608;-117.032;2023-03-08T11:26:26;99845.42;;;19.35;38.70
60646;BME280;46462;32.608;-117.032;2023-03-08T11:29:01;99839.73;;;19.26;38.38
60646;BME280;46462;32.608;-117.032;2023-03-08T11:31:26;99839.09;;;19.28;38.55
60646;BME280;46462;32.608;-117.032;2023-03-08T11:34:04;99839.45;;;19.23;39.03
60646;BME280;46462;32.608;-117.032;2023-03-08T11:36:23;99838.22;;;19.22;38.56
60646;BME280;46462;32.608;-117.032;2023-03-08T11:38:57;99840.19;;;19.21;38.61
60646;BME280;46462;32.608;-117.032;2023-03-08T11:41:28;99837.63;;;19.16;39.01
60646;BME280;46462;32.608;-117.032;2023-03-08T11:44:02;99833.48;;;19.23;38.51
60646;BME280;46462;32.608;-117.032;2023-03-08T11:46:23;99833.39;;;19.24;38.41
60646;BME280;46462;32.608;-117.032;2023-03-08T11:49:02;99832.17;;;19.11;38.81
60646;BME280;46462;32.608;-117.032;2023-03-08T11:51:25;99837.51;;;19.08;38.55
60646;BME280;46462;32.608;-117.032;2023-03-08T11:53:59;99839.22;;;18.88;39.07
60646;BME280;46462;32.608;-117.032;2023-03-08T11:56:35;99843.98;;;19.02;38.90
60646;BME280;46462;32.608;-117.032;2023-03-08T11:58:56;99844.98;;;19.12;38.49
60646;BME280;46462;32.608;-117.032;2023-03-08T12:01:25;99851.87;;;19.26;38.06
60646;BME280;46462;32.608;-117.032;2023-03-08T12:03:55;99857.99;;;19.19;38.09
60646;BME280;46462;32.608;-117.032;2023-03-08T12:06:26;99857.11;;;19.02;38.74
60646;BME280;46462;32.608;-117.032;2023-03-08T12:08:55;99855.59;;;18.87;39.06
60646;BME280;46462;32.608;-117.032;2023-03-08T12:11:25;99855.97;;;18.99;38.50
60646;BME280;46462;32.608;-117.032;2023-03-08T12:13:56;99864.11;;;18.94;38.81
60646;BME280;46462;32.608;-117.032;2023-03-08T12:16:25;99867.24;;;18.88;38.59
60646;BME280;46462;32.608;-117.032;2023-03-08T12:18:56;99864.79;;;18.83;39.05
60646;BME280;46462;32.608;-117.032;2023-03-08T12:21:32;99870.11;;;18.81;39.21
60646;BME280;46462;32.608;-117.032;2023-03-08T12:24:03;99878.04;;;18.93;38.89
60646;BME280;46462;32.608;-117.032;2023-03-08T12:26:26;99879.19;;;18.90;38.85
60646;BME280;46462;32.608;-117.032;2023-03-08T12:28:55;99881.81;;;18.99;38.47
60646;BME280;46462;32.608;-117.032;2023-03-08T12:31:25;99883.21;;;19.00;38.09
60646;BME280;46462;32.608;-117.032;2023-03-08T12:33:54;99874.63;;;18.95;38.47
60646;BME280;46462;32.608;-117.032;2023-03-08T12:38:53;99870.20;;;18.94;38.44
60646;BME280;46462;32.608;-117.032;2023-03-08T12:41:26;99868.37;;;18.83;38.61
60646;BME280;46462;32.608;-117.032;2023-03-08T12:43:59;99868.13;;;18.86;38.54
60646;BME280;46462;32.608;-117.032;2023-03-08T12:46:23;99875.86;;;18.76;38.78
60646;BME280;46462;32.608;-117.032;2023-03-08T12:48:53;99884.59;;;18.66;38.97
60646;BME280;46462;32.608;-117.032;2023-03-08T12:51:28;99886.09;;;18.61;39.02
60646;BME280;46462;32.608;-117.032;2023-03-08T12:53:59;99890.62;;;18.72;38.37